sensor_id;sensor_type;location;lat;lon;timestamp;P1;durP1;ratioP1;P2;durP2;ratioP2
803;SDS011;25687;49.976;8.240;2023-06-10T00:02:15;7.00;;;6.23;;
803;SDS011;25687;49.976;8.240;2023-06-10T00:04:41;9.17;;;6.13;;
803;SDS011;25687;49.976;8.240;2023-06-10T00:07:07;7.00;;;6.30;;
803;SDS011;25687;49.976;8.240;2023-06-10T00:09:37;8.33;;;6.30;;
803;SDS011;25687;49.976;8.240;2023-06-10T00:12:06;12.07;;;6.57;;
803;SDS011;25687;49.976;8.240;2023-06-10T00:14:33;10.93;;;6.97;;
803;SDS011;25687;49.976;8.240;2023-06-10T00:17:00;7.13;;;6.43;;
803;SDS011;25687;49.976;8.240;2023-06-10T00:19:25;9.53;;;6.50;;
803;SDS011;25687;49.976;8.240;2023-06-10T00:21:50;7.20;;;6.60;;
803;SDS011;25687;49.976;8.240;2023-06-10T00:24:17;8.07;;;7.10;;
803;SDS011;25687;49.976;8.240;2023-06-10T00:26:42;8.63;;;7.10;;
803;SDS011;25687;49.976;8.240;2023-06-10T00:29:08;11.53;;;7.00;;
803;SDS011;25687;49.976;8.240;2023-06-10T00:31:33;9.03;;;6.87;;
803;SDS011;25687;49.976;8.240;2023-06-10T00:33:59;8.10;;;6.80;;
803;SDS011;25687;49.976;8.240;2023-06-10T00:36:25;7.40;;;6.70;;
803;SDS011;25687;49.976;8.240;2023-06-10T00:38:50;14.67;;;6.47;;
803;SDS011;25687;49.976;8.240;2023-06-10T00:41:15;7.60;;;6.27;;
803;SDS011;25687;49.976;8.240;2023-06-10T00:43:40;7.90;;;6.70;;
803;SDS011;25687;49.976;8.240;2023-06-10T00:46:06;7.37;;;6.67;;
803;SDS011;25687;49.976;8.240;2023-06-10T00:48:31;7.23;;;6.27;;
803;SDS011;25687;49.976;8.240;2023-06-10T00:50:57;7.20;;;6.50;;
803;SDS011;25687;49.976;8.240;2023-06-10T00:53:23;7.90;;;6.80;;
803;SDS011;25687;49.976;8.240;2023-06-10T00:55:49;11.87;;;6.73;;
803;SDS011;25687;49.976;8.240;2023-06-10T00:58:15;6.53;;;5.93;;
803;SDS011;25687;49.976;8.240;2023-06-10T01:00:40;7.93;;;6.97;;
803;SDS011;25687;49.976;8.240;2023-06-10T01:03:06;9.60;;;7.17;;
803;SDS011;25687;49.976;8.240;2023-06-10T01:05:33;7.60;;;6.77;;
803;SDS011;25687;49.976;8.240;2023-06-10T01:10:33;8.43;;;6.90;;
803;SDS011;25687;49.976;8.240;2023-06-10T01:13:05;7.93;;;6.37;;
803;SDS011;25687;49.976;8.240;2023-06-10T01:15:36;7.23;;;6.53;;
803;SDS011;25687;49.976;8.240;2023-06-10T01:18:03;7.67;;;6.67;;
803;SDS011;25687;49.976;8.240;2023-06-10T01:20:34;7.70;;;6.97;;
803;SDS011;25687;49.976;8.240;2023-06-10T01:23:02;7.63;;;6.53;;
803;SDS011;25687;49.976;8.240;2023-06-10T01:25:28;10.03;;;7.03;;
803;SDS011;25687;49.976;8.240;2023-06-10T01:28:07;10.70;;;7.03;;
803;SDS011;25687;49.976;8.240;2023-06-10T01:33:41;7.57;;;6.90;;
803;SDS011;25687;49.976;8.240;2023-06-10T01:36:10;7.53;;;6.77;;
803;SDS011;25687;49.976;8.240;2023-06-10T01:38:39;7.47;;;6.77;;
803;SDS011;25687;49.976;8.240;2023-06-10T01:41:07;9.30;;;7.10;;
803;SDS011;25687;49.976;8.240;2023-06-10T01:43:33;7.03;;;6.43;;
803;SDS011;25687;49.976;8.240;2023-06-10T01:45:59;7.83;;;7.03;;
803;SDS011;25687;49.976;8.240;2023-06-10T01:48:25;8.70;;;7.37;;
803;SDS011;25687;49.976;8.240;2023-06-10T01:50:50;8.43;;;7.67;;
803;SDS011;25687;49.976;8.240;2023-06-10T01:53:15;7.37;;;6.67;;
803;SDS011;25687;49.976;8.240;2023-06-10T01:55:40;8.43;;;7.63;;
803;SDS011;25687;49.976;8.240;2023-06-10T01:58:06;9.47;;;7.30;;
803;SDS011;25687;49.976;8.240;2023-06-10T02:00:31;8.67;;;7.77;;
803;SDS011;25687;49.976;8.240;2023-06-10T02:02:56;10.43;;;7.50;;
803;SDS011;25687;49.976;8.240;2023-06-10T02:05:21;9.47;;;7.40;;
803;SDS011;25687;49.976;8.240;2023-06-10T02:07:47;8.27;;;7.47;;
803;SDS011;25687;49.976;8.240;2023-06-10T02:10:13;7.90;;;7.20;;
803;SDS011;25687;49.976;8.240;2023-06-10T02:12:38;8.27;;;7.47;;
803;SDS011;25687;49.976;8.240;2023-06-10T02:15:03;7.93;;;7.13;;
803;SDS011;25687;49.976;8.240;2023-06-10T02:17:29;10.47;;;7.67;;
803;SDS011;25687;49.976;8.240;2023-06-10T02:19:55;8.43;;;7.63;;
803;SDS011;25687;49.976;8.240;2023-06-10T02:22:22;11.53;;;7.90;;
803;SDS011;25687;49.976;8.240;2023-06-10T02:24:48;8.47;;;7.60;;
803;SDS011;25687;49.976;8.240;2023-06-10T02:27:14;9.73;;;7.80;;
803;SDS011;25687;49.976;8.240;2023-06-10T02:29:40;8.70;;;7.90;;
803;SDS011;25687;49.976;8.240;2023-06-10T02:32:06;9.00;;;7.87;;
803;SDS011;25687;49.976;8.240;2023-06-10T02:34:31;10.67;;;7.30;;
803;SDS011;25687;49.976;8.240;2023-06-10T02:36:57;8.70;;;7.90;;
803;SDS011;25687;49.976;8.240;2023-06-10T02:39:22;8.47;;;7.63;;
803;SDS011;25687;49.976;8.240;2023-06-10T02:41:47;9.00;;;8.10;;
803;SDS011;25687;49.976;8.240;2023-06-10T02:44:12;8.17;;;7.47;;
803;SDS011;25687;49.976;8.240;2023-06-10T02:46:38;9.40;;;7.90;;
803;SDS011;25687;49.976;8.240;2023-06-10T02:49:03;8.17;;;7.47;;
803;SDS011;25687;49.976;8.240;2023-06-10T02:51:28;9.90;;;8.00;;
803;SDS011;25687;49.976;8.240;2023-06-10T02:53:53;8.63;;;7.80;;
803;SDS011;25687;49.976;8.240;2023-06-10T02:56:19;9.73;;;8.73;;
803;SDS011;25687;49.976;8.240;2023-06-10T02:58:45;9.77;;;8.10;;
803;SDS011;25687;49.976;8.240;2023-06-10T03:01:10;8.80;;;7.33;;
803;SDS011;25687;49.976;8.240;2023-06-10T03:03:36;8.57;;;7.77;;
803;SDS011;25687;49.976;8.240;2023-06-10T03:06:05;8.93;;;8.13;;
803;SDS011;25687;49.976;8.240;2023-06-10T03:08:30;9.13;;;8.07;;
803;SDS011;25687;49.976;8.240;2023-06-10T03:10:56;8.67;;;7.97;;
803;SDS011;25687;49.976;8.240;2023-06-10T03:13:21;9.03;;;7.70;;
803;SDS011;25687;49.976;8.240;2023-06-10T03:15:46;8.33;;;7.63;;
803;SDS011;25687;49.976;8.240;2023-06-10T03:18:11;8.73;;;7.93;;
803;SDS011;25687;49.976;8.240;2023-06-10T03:20:37;9.30;;;8.17;;
803;SDS011;25687;49.976;8.240;2023-06-10T03:23:04;8.63;;;7.73;;
803;SDS011;25687;49.976;8.240;2023-06-10T03:25:31;8.60;;;7.80;;
803;SDS011;25687;49.976;8.240;2023-06-10T03:27:57;10.60;;;7.90;;
803;SDS011;25687;49.976;8.240;2023-06-10T03:30:22;7.87;;;7.07;;
803;SDS011;25687;49.976;8.240;2023-06-10T03:32:47;8.67;;;7.87;;
803;SDS011;25687;49.976;8.240;2023-06-10T03:35:13;9.03;;;8.17;;
803;SDS011;25687;49.976;8.240;2023-06-10T03:37:39;8.50;;;7.77;;
803;SDS011;25687;49.976;8.240;2023-06-10T03:40:05;8.07;;;7.33;;
803;SDS011;25687;49.976;8.240;2023-06-10T03:42:32;8.83;;;8.03;;
803;SDS011;25687;49.976;8.240;2023-06-10T03:44:57;8.83;;;7.90;;
803;SDS011;25687;49.976;8.240;2023-06-10T03:47:23;7.80;;;7.07;;
803;SDS011;25687;49.976;8.240;2023-06-10T03:49:48;10.00;;;7.20;;
803;SDS011;25687;49.976;8.240;2023-06-10T03:52:13;8.43;;;7.63;;
803;SDS011;25687;49.976;8.240;2023-06-10T03:54:38;8.67;;;7.60;;
803;SDS011;25687;49.976;8.240;2023-06-10T03:57:04;7.87;;;7.27;;
803;SDS011;25687;49.976;8.240;2023-06-10T03:59:30;7.83;;;7.10;;
803;SDS011;25687;49.976;8.240;2023-06-10T04:01:55;9.70;;;8.10;;
803;SDS011;25687;49.976;8.240;2023-06-10T04:04:21;8.87;;;8.07;;
803;SDS011;25687;49.976;8.240;2023-06-10T04:06:46;10.87;;;7.90;;
803;SDS011;25687;49.976;8.240;2023-06-10T04:09:12;8.63;;;7.87;;
803;SDS011;25687;49.976;8.240;2023-06-10T04:11:37;9.10;;;8.27;;
803;SDS011;25687;49.976;8.240;2023-06-10T04:14:03;8.03;;;7.33;;
803;SDS011;25687;49.976;8.240;2023-06-10T04:16:28;9.43;;;8.40;;
803;SDS011;25687;49.976;8.240;2023-06-10T04:18:53;8.50;;;7.60;;
803;SDS011;25687;49.976;8.240;2023-06-10T04:21:19;9.93;;;7.67;;
803;SDS011;25687;49.976;8.240;2023-06-10T04:23:45;8.93;;;7.10;;
803;SDS011;25687;49.976;8.240;2023-06-10T04:26:10;8.30;;;7.50;;
803;SDS011;25687;49.976;8.240;2023-06-10T04:28:37;8.40;;;7.67;;
803;SDS011;25687;49.976;8.240;2023-06-10T04:31:02;8.53;;;7.07;;
803;SDS011;25687;49.976;8.240;2023-06-10T04:33:29;11.23;;;8.43;;
803;SDS011;25687;49.976;8.240;2023-06-10T04:35:55;8.17;;;7.27;;
803;SDS011;25687;49.976;8.240;2023-06-10T04:38:20;9.50;;;8.63;;
803;SDS011;25687;49.976;8.240;2023-06-10T04:40:46;7.93;;;7.17;;
803;SDS011;25687;49.976;8.240;2023-06-10T04:43:11;7.83;;;7.13;;
803;SDS011;25687;49.976;8.240;2023-06-10T04:45:37;8.63;;;7.73;;
803;SDS011;25687;49.976;8.240;2023-06-10T04:48:02;8.30;;;7.17;;
803;SDS011;25687;49.976;8.240;2023-06-10T04:50:28;9.47;;;7.60;;
803;SDS011;25687;49.976;8.240;2023-06-10T04:52:53;7.70;;;6.90;;
803;SDS011;25687;49.976;8.240;2023-06-10T04:55:22;7.73;;;7.03;;
803;SDS011;25687;49.976;8.240;2023-06-10T04:57:47;9.30;;;6.93;;
803;SDS011;25687;49.976;8.240;2023-06-10T05:00:12;8.23;;;6.77;;
803;SDS011;25687;49.976;8.240;2023-06-10T05:02:39;8.77;;;7.43;;
803;SDS011;25687;49.976;8.240;2023-06-10T05:05:04;7.77;;;6.97;;
803;SDS011;25687;49.976;8.240;2023-06-10T05:07:29;7.30;;;6.60;;
803;SDS011;25687;49.976;8.240;2023-06-10T05:09:55;8.10;;;5.90;;
803;SDS011;25687;49.976;8.240;2023-06-10T05:12:20;7.70;;;5.87;;
803;SDS011;25687;49.976;8.240;2023-06-10T05:14:45;8.50;;;5.90;;
803;SDS011;25687;49.976;8.240;2023-06-10T05:17:11;6.57;;;5.90;;
803;SDS011;25687;49.976;8.240;2023-06-10T05:19:37;7.47;;;5.90;;
803;SDS011;25687;49.976;8.240;2023-06-10T05:22:03;8.47;;;5.53;;
803;SDS011;25687;49.976;8.240;2023-06-10T05:24:28;7.63;;;5.50;;
803;SDS011;25687;49.976;8.240;2023-06-10T05:26:54;5.93;;;5.20;;
803;SDS011;25687;49.976;8.240;2023-06-10T05:29:19;8.27;;;6.20;;
803;SDS011;25687;49.976;8.240;2023-06-10T05:31:44;6.63;;;5.73;;
803;SDS011;25687;49.976;8.240;2023-06-10T05:34:10;8.90;;;5.93;;
803;SDS011;25687;49.976;8.240;2023-06-10T05:36:35;5.70;;;5.00;;
803;SDS011;25687;49.976;8.240;2023-06-10T05:39:00;5.93;;;5.33;;
803;SDS011;25687;49.976;8.240;2023-06-10T05:41:25;8.07;;;4.83;;
803;SDS011;25687;49.976;8.240;2023-06-10T05:43:51;8.20;;;5.20;;
803;SDS011;25687;49.976;8.240;2023-06-10T05:46:16;6.57;;;5.10;;
803;SDS011;25687;49.976;8.240;2023-06-10T05:48:41;5.37;;;4.67;;
803;SDS011;25687;49.976;8.240;2023-06-10T05:51:07;7.07;;;5.77;;
803;SDS011;25687;49.976;8.240;2023-06-10T05:53:32;6.73;;;5.30;;
803;SDS011;25687;49.976;8.240;2023-06-10T05:55:57;7.40;;;5.33;;
803;SDS011;25687;49.976;8.240;2023-06-10T05:58:23;6.20;;;5.20;;
803;SDS011;25687;49.976;8.240;2023-06-10T06:00:49;7.17;;;5.17;;
803;SDS011;25687;49.976;8.240;2023-06-10T06:03:15;8.87;;;5.43;;
803;SDS011;25687;49.976;8.240;2023-06-10T06:05:40;7.47;;;5.10;;
803;SDS011;25687;49.976;8.240;2023-06-10T06:08:06;7.33;;;4.70;;
803;SDS011;25687;49.976;8.240;2023-06-10T06:10:32;4.80;;;4.30;;
803;SDS011;25687;49.976;8.240;2023-06-10T06:12:57;7.05;;;5.32;;
803;SDS011;25687;49.976;8.240;2023-06-10T06:15:22;5.20;;;4.70;;
803;SDS011;25687;49.976;8.240;2023-06-10T06:17:48;5.85;;;5.20;;
803;SDS011;25687;49.976;8.240;2023-06-10T06:20:13;7.10;;;5.38;;
803;SDS011;25687;49.976;8.240;2023-06-10T06:22:39;5.38;;;4.63;;
803;SDS011;25687;49.976;8.240;2023-06-10T06:25:04;5.65;;;4.55;;
803;SDS011;25687;49.976;8.240;2023-06-10T06:27:30;5.93;;;5.32;;
803;SDS011;25687;49.976;8.240;2023-06-10T06:29:56;5.22;;;4.72;;
803;SDS011;25687;49.976;8.240;2023-06-10T06:32:21;6.15;;;4.95;;
803;SDS011;25687;49.976;8.240;2023-06-10T06:34:47;4.90;;;4.40;;
803;SDS011;25687;49.976;8.240;2023-06-10T06:37:14;5.28;;;4.85;;
803;SDS011;25687;49.976;8.240;2023-06-10T06:39:39;6.93;;;6.20;;
803;SDS011;25687;49.976;8.240;2023-06-10T06:42:05;5.75;;;4.60;;
803;SDS011;25687;49.976;8.240;2023-06-10T06:44:30;5.07;;;4.57;;
803;SDS011;25687;49.976;8.240;2023-06-10T06:46:56;6.60;;;5.03;;
803;SDS011;25687;49.976;8.240;2023-06-10T06:49:21;5.03;;;4.47;;
803;SDS011;25687;49.976;8.240;2023-06-10T06:51:46;5.45;;;4.95;;
803;SDS011;25687;49.976;8.240;2023-06-10T06:54:11;7.22;;;5.07;;
803;SDS011;25687;49.976;8.240;2023-06-10T06:56:37;7.75;;;4.63;;
803;SDS011;25687;49.976;8.240;2023-06-10T06:59:03;5.80;;;4.43;;
803;SDS011;25687;49.976;8.240;2023-06-10T07:01:29;5.03;;;4.60;;
803;SDS011;25687;49.976;8.240;2023-06-10T07:03:54;6.78;;;4.53;;
803;SDS011;25687;49.976;8.240;2023-06-10T07:06:20;5.47;;;4.97;;
803;SDS011;25687;49.976;8.240;2023-06-10T07:08:45;6.78;;;5.10;;
803;SDS011;25687;49.976;8.240;2023-06-10T07:11:10;6.10;;;4.95;;
803;SDS011;25687;49.976;8.240;2023-06-10T07:13:35;5.35;;;4.82;;
803;SDS011;25687;49.976;8.240;2023-06-10T07:16:01;5.28;;;4.78;;
803;SDS011;25687;49.976;8.240;2023-06-10T07:18:26;5.45;;;4.75;;
803;SDS011;25687;49.976;8.240;2023-06-10T07:20:51;5.90;;;5.30;;
803;SDS011;25687;49.976;8.240;2023-06-10T07:23:16;5.40;;;4.90;;
803;SDS011;25687;49.976;8.240;2023-06-10T07:25:42;5.63;;;5.05;;
803;SDS011;25687;49.976;8.240;2023-06-10T07:28:07;5.80;;;5.22;;
803;SDS011;25687;49.976;8.240;2023-06-10T07:30:32;5.35;;;4.60;;
803;SDS011;25687;49.976;8.240;2023-06-10T07:32:58;6.13;;;4.78;;
803;SDS011;25687;49.976;8.240;2023-06-10T07:35:23;5.25;;;4.40;;
803;SDS011;25687;49.976;8.240;2023-06-10T07:37:48;5.05;;;4.60;;
803;SDS011;25687;49.976;8.240;2023-06-10T07:40:14;6.68;;;4.55;;
803;SDS011;25687;49.976;8.240;2023-06-10T07:42:39;5.45;;;4.95;;
803;SDS011;25687;49.976;8.240;2023-06-10T07:45:04;5.65;;;4.88;;
803;SDS011;25687;49.976;8.240;2023-06-10T07:47:33;5.47;;;4.70;;
803;SDS011;25687;49.976;8.240;2023-06-10T07:49:59;5.53;;;5.00;;
803;SDS011;25687;49.976;8.240;2023-06-10T07:52:24;5.63;;;4.95;;
803;SDS011;25687;49.976;8.240;2023-06-10T07:54:50;5.75;;;4.45;;
803;SDS011;25687;49.976;8.240;2023-06-10T07:57:16;6.45;;;5.00;;
803;SDS011;25687;49.976;8.240;2023-06-10T07:59:41;7.60;;;5.28;;
803;SDS011;25687;49.976;8.240;2023-06-10T08:02:06;7.38;;;4.90;;
803;SDS011;25687;49.976;8.240;2023-06-10T08:04:32;5.25;;;4.80;;
803;SDS011;25687;49.976;8.240;2023-06-10T08:06:57;10.93;;;5.47;;
803;SDS011;25687;49.976;8.240;2023-06-10T08:09:22;7.15;;;5.03;;
803;SDS011;25687;49.976;8.240;2023-06-10T08:11:48;8.05;;;5.07;;
803;SDS011;25687;49.976;8.240;2023-06-10T08:14:14;8.00;;;5.43;;
803;SDS011;25687;49.976;8.240;2023-06-10T08:16:39;5.30;;;4.72;;
803;SDS011;25687;49.976;8.240;2023-06-10T08:19:05;5.43;;;4.90;;
803;SDS011;25687;49.976;8.240;2023-06-10T08:21:30;5.47;;;4.97;;
803;SDS011;25687;49.976;8.240;2023-06-10T08:23:56;9.15;;;5.20;;
803;SDS011;25687;49.976;8.240;2023-06-10T08:26:21;6.35;;;5.03;;
803;SDS011;25687;49.976;8.240;2023-06-10T08:28:47;7.38;;;5.70;;
803;SDS011;25687;49.976;8.240;2023-06-10T08:31:12;6.93;;;5.10;;
803;SDS011;25687;49.976;8.240;2023-06-10T08:33:37;7.70;;;5.50;;
803;SDS011;25687;49.976;8.240;2023-06-10T08:36:02;5.28;;;4.85;;
803;SDS011;25687;49.976;8.240;2023-06-10T08:38:28;6.88;;;5.50;;
803;SDS011;25687;49.976;8.240;2023-06-10T08:40:55;6.15;;;5.25;;
803;SDS011;25687;49.976;8.240;2023-06-10T08:43:29;6.28;;;4.80;;
803;SDS011;25687;49.976;8.240;2023-06-10T08:45:59;6.80;;;5.50;;
803;SDS011;25687;49.976;8.240;2023-06-10T08:48:26;6.45;;;4.97;;
803;SDS011;25687;49.976;8.240;2023-06-10T08:50:55;5.85;;;5.35;;
803;SDS011;25687;49.976;8.240;2023-06-10T08:53:22;8.02;;;5.40;;
803;SDS011;25687;49.976;8.240;2023-06-10T08:55:50;7.28;;;5.45;;
803;SDS011;25687;49.976;8.240;2023-06-10T08:58:17;8.63;;;5.13;;
803;SDS011;25687;49.976;8.240;2023-06-10T09:00:42;7.32;;;5.47;;
803;SDS011;25687;49.976;8.240;2023-06-10T09:03:08;7.57;;;5.40;;
803;SDS011;25687;49.976;8.240;2023-06-10T09:05:34;6.00;;;4.88;;
803;SDS011;25687;49.976;8.240;2023-06-10T09:08:01;5.40;;;4.93;;
803;SDS011;25687;49.976;8.240;2023-06-10T09:10:26;6.90;;;5.82;;
803;SDS011;25687;49.976;8.240;2023-06-10T09:12:52;5.78;;;5.20;;
803;SDS011;25687;49.976;8.240;2023-06-10T09:15:18;6.22;;;4.95;;
803;SDS011;25687;49.976;8.240;2023-06-10T09:17:43;7.80;;;5.20;;
803;SDS011;25687;49.976;8.240;2023-06-10T09:20:10;5.47;;;4.95;;
803;SDS011;25687;49.976;8.240;2023-06-10T09:22:35;5.55;;;5.05;;
803;SDS011;25687;49.976;8.240;2023-06-10T09:25:02;8.15;;;4.95;;
803;SDS011;25687;49.976;8.240;2023-06-10T09:27:29;6.78;;;5.15;;
803;SDS011;25687;49.976;8.240;2023-06-10T09:29:56;6.30;;;4.82;;
803;SDS011;25687;49.976;8.240;2023-06-10T09:32:22;6.20;;;4.63;;
803;SDS011;25687;49.976;8.240;2023-06-10T09:34:49;6.00;;;5.40;;
803;SDS011;25687;49.976;8.240;2023-06-10T09:37:25;6.50;;;4.93;;
803;SDS011;25687;49.976;8.240;2023-06-10T09:40:06;6.70;;;4.53;;
803;SDS011;25687;49.976;8.240;2023-06-10T09:42:34;7.75;;;5.20;;
803;SDS011;25687;49.976;8.240;2023-06-10T09:45:00;9.27;;;5.43;;
803;SDS011;25687;49.976;8.240;2023-06-10T09:47:26;10.27;;;5.40;;
803;SDS011;25687;49.976;8.240;2023-06-10T09:49:51;6.00;;;5.20;;
803;SDS011;25687;49.976;8.240;2023-06-10T09:52:25;6.63;;;6.03;;
803;SDS011;25687;49.976;8.240;2023-06-10T09:54:52;6.25;;;4.65;;
803;SDS011;25687;49.976;8.240;2023-06-10T09:57:21;6.10;;;4.85;;
803;SDS011;25687;49.976;8.240;2023-06-10T09:59:47;9.13;;;4.25;;
803;SDS011;25687;49.976;8.240;2023-06-10T10:02:16;8.93;;;5.45;;
803;SDS011;25687;49.976;8.240;2023-06-10T10:04:42;6.50;;;5.15;;
803;SDS011;25687;49.976;8.240;2023-06-10T10:07:09;6.00;;;4.80;;
803;SDS011;25687;49.976;8.240;2023-06-10T10:09:41;5.35;;;4.78;;
803;SDS011;25687;49.976;8.240;2023-06-10T10:12:11;5.53;;;4.25;;
803;SDS011;25687;49.976;8.240;2023-06-10T10:14:37;10.15;;;4.30;;
803;SDS011;25687;49.976;8.240;2023-06-10T10:17:08;5.45;;;3.88;;
803;SDS011;25687;49.976;8.240;2023-06-10T10:19:48;6.22;;;3.95;;
803;SDS011;25687;49.976;8.240;2023-06-10T10:22:20;5.18;;;4.78;;
803;SDS011;25687;49.976;8.240;2023-06-10T10:24:59;4.65;;;4.32;;
803;SDS011;25687;49.976;8.240;2023-06-10T10:27:27;5.10;;;4.68;;
803;SDS011;25687;49.976;8.240;2023-06-10T10:29:54;5.03;;;4.57;;
803;SDS011;25687;49.976;8.240;2023-06-10T10:32:26;4.93;;;4.53;;
803;SDS011;25687;49.976;8.240;2023-06-10T10:35:05;8.20;;;4.78;;
803;SDS011;25687;49.976;8.240;2023-06-10T10:37:33;5.45;;;4.43;;
803;SDS011;25687;49.976;8.240;2023-06-10T10:40:00;5.47;;;4.50;;
803;SDS011;25687;49.976;8.240;2023-06-10T10:42:28;6.10;;;4.80;;
803;SDS011;25687;49.976;8.240;2023-06-10T10:44:54;5.15;;;4.75;;
803;SDS011;25687;49.976;8.240;2023-06-10T10:47:22;8.98;;;5.30;;
803;SDS011;25687;49.976;8.240;2023-06-10T10:49:54;7.25;;;5.25;;
803;SDS011;25687;49.976;8.240;2023-06-10T10:52:19;7.68;;;5.20;;
803;SDS011;25687;49.976;8.240;2023-06-10T10:54:45;7.50;;;5.18;;
803;SDS011;25687;49.976;8.240;2023-06-10T10:57:21;6.95;;;5.60;;
803;SDS011;25687;49.976;8.240;2023-06-10T11:02:17;6.88;;;5.40;;
803;SDS011;25687;49.976;8.240;2023-06-10T11:05:00;13.13;;;6.07;;
803;SDS011;25687;49.976;8.240;2023-06-10T11:07:26;6.95;;;6.07;;
803;SDS011;25687;49.976;8.240;2023-06-10T11:09:58;6.70;;;5.90;;
803;SDS011;25687;49.976;8.240;2023-06-10T11:12:25;7.53;;;5.28;;
803;SDS011;25687;49.976;8.240;2023-06-10T11:14:54;7.00;;;5.13;;
803;SDS011;25687;49.976;8.240;2023-06-10T11:17:20;6.55;;;5.30;;
803;SDS011;25687;49.976;8.240;2023-06-10T11:19:45;5.78;;;5.25;;
803;SDS011;25687;49.976;8.240;2023-06-10T11:22:15;8.80;;;5.05;;
803;SDS011;25687;49.976;8.240;2023-06-10T11:24:44;6.57;;;5.32;;
803;SDS011;25687;49.976;8.240;2023-06-10T11:29:54;7.25;;;5.03;;
803;SDS011;25687;49.976;8.240;2023-06-10T11:32:42;5.30;;;4.85;;
803;SDS011;25687;49.976;8.240;2023-06-10T11:35:08;5.63;;;5.13;;
803;SDS011;25687;49.976;8.240;2023-06-10T11:37:33;6.40;;;4.95;;
803;SDS011;25687;49.976;8.240;2023-06-10T11:39:58;5.72;;;5.13;;
803;SDS011;25687;49.976;8.240;2023-06-10T11:42:24;8.13;;;5.20;;
803;SDS011;25687;49.976;8.240;2023-06-10T11:44:50;6.47;;;5.00;;
803;SDS011;25687;49.976;8.240;2023-06-10T11:47:16;5.55;;;5.10;;
803;SDS011;25687;49.976;8.240;2023-06-10T11:49:42;5.10;;;4.70;;
803;SDS011;25687;49.976;8.240;2023-06-10T11:52:08;6.07;;;5.47;;
803;SDS011;25687;49.976;8.240;2023-06-10T11:54:33;5.57;;;5.07;;
803;SDS011;25687;49.976;8.240;2023-06-10T11:56:58;5.43;;;4.93;;
803;SDS011;25687;49.976;8.240;2023-06-10T11:59:33;6.25;;;5.75;;
803;SDS011;25687;49.976;8.240;2023-06-10T12:01:58;6.25;;;4.57;;
803;SDS011;25687;49.976;8.240;2023-06-10T12:04:23;7.20;;;4.75;;
803;SDS011;25687;49.976;8.240;2023-06-10T12:06:51;5.85;;;4.85;;
803;SDS011;25687;49.976;8.240;2023-06-10T12:09:22;5.20;;;4.68;;
803;SDS011;25687;49.976;8.240;2023-06-10T12:11:52;6.10;;;4.50;;
803;SDS011;25687;49.976;8.240;2023-06-10T12:19:50;4.70;;;4.00;;
803;SDS011;25687;49.976;8.240;2023-06-10T12:22:16;6.20;;;4.75;;
803;SDS011;25687;49.976;8.240;2023-06-10T12:24:45;4.90;;;3.78;;
803;SDS011;25687;49.976;8.240;2023-06-10T12:27:22;5.53;;;4.55;;
803;SDS011;25687;49.976;8.240;2023-06-10T12:29:50;8.48;;;4.68;;
803;SDS011;25687;49.976;8.240;2023-06-10T12:32:18;4.43;;;4.03;;
803;SDS011;25687;49.976;8.240;2023-06-10T12:34:45;5.38;;;4.40;;
803;SDS011;25687;49.976;8.240;2023-06-10T12:37:11;9.55;;;4.22;;
803;SDS011;25687;49.976;8.240;2023-06-10T12:39:38;4.82;;;4.32;;
803;SDS011;25687;49.976;8.240;2023-06-10T12:42:05;8.45;;;4.20;;
803;SDS011;25687;49.976;8.240;2023-06-10T12:44:34;5.20;;;4.30;;
803;SDS011;25687;49.976;8.240;2023-06-10T12:47:07;5.30;;;3.80;;
803;SDS011;25687;49.976;8.240;2023-06-10T12:49:37;5.75;;;3.85;;
803;SDS011;25687;49.976;8.240;2023-06-10T12:52:03;5.68;;;3.83;;
803;SDS011;25687;49.976;8.240;2023-06-10T12:54:29;3.95;;;3.55;;
803;SDS011;25687;49.976;8.240;2023-06-10T12:56:54;4.85;;;3.90;;
803;SDS011;25687;49.976;8.240;2023-06-10T12:59:19;5.25;;;3.95;;
803;SDS011;25687;49.976;8.240;2023-06-10T13:01:49;7.10;;;3.60;;
803;SDS011;25687;49.976;8.240;2023-06-10T13:04:16;4.53;;;4.10;;
803;SDS011;25687;49.976;8.240;2023-06-10T13:06:43;5.53;;;4.00;;
803;SDS011;25687;49.976;8.240;2023-06-10T13:09:08;4.65;;;3.92;;
803;SDS011;25687;49.976;8.240;2023-06-10T13:11:34;5.03;;;4.30;;
803;SDS011;25687;49.976;8.240;2023-06-10T13:14:00;4.50;;;3.50;;
803;SDS011;25687;49.976;8.240;2023-06-10T13:16:25;5.30;;;3.80;;
803;SDS011;25687;49.976;8.240;2023-06-10T13:18:52;6.55;;;3.60;;
803;SDS011;25687;49.976;8.240;2023-06-10T13:21:18;4.57;;;3.90;;
803;SDS011;25687;49.976;8.240;2023-06-10T13:23:44;6.68;;;3.53;;
803;SDS011;25687;49.976;8.240;2023-06-10T13:26:11;5.75;;;3.97;;
803;SDS011;25687;49.976;8.240;2023-06-10T13:28:36;4.78;;;4.00;;
803;SDS011;25687;49.976;8.240;2023-06-10T13:31:01;7.30;;;4.25;;
803;SDS011;25687;49.976;8.240;2023-06-10T13:33:26;7.30;;;3.75;;
803;SDS011;25687;49.976;8.240;2023-06-10T13:35:52;4.25;;;3.85;;
803;SDS011;25687;49.976;8.240;2023-06-10T13:38:17;4.78;;;3.90;;
803;SDS011;25687;49.976;8.240;2023-06-10T13:40:42;7.00;;;3.85;;
803;SDS011;25687;49.976;8.240;2023-06-10T13:43:07;5.30;;;3.92;;
803;SDS011;25687;49.976;8.240;2023-06-10T13:45:34;4.65;;;4.05;;
803;SDS011;25687;49.976;8.240;2023-06-10T13:47:59;6.85;;;4.07;;
803;SDS011;25687;49.976;8.240;2023-06-10T13:50:26;10.43;;;4.50;;
803;SDS011;25687;49.976;8.240;2023-06-10T13:52:51;4.50;;;4.18;;
803;SDS011;25687;49.976;8.240;2023-06-10T13:55:16;4.45;;;4.05;;
803;SDS011;25687;49.976;8.240;2023-06-10T13:57:43;13.60;;;4.22;;
803;SDS011;25687;49.976;8.240;2023-06-10T14:00:08;5.38;;;4.13;;
803;SDS011;25687;49.976;8.240;2023-06-10T14:02:35;5.13;;;4.28;;
803;SDS011;25687;49.976;8.240;2023-06-10T14:05:00;6.55;;;4.05;;
803;SDS011;25687;49.976;8.240;2023-06-10T14:07:26;9.38;;;4.50;;
803;SDS011;25687;49.976;8.240;2023-06-10T14:09:52;6.22;;;3.90;;
803;SDS011;25687;49.976;8.240;2023-06-10T14:12:17;4.75;;;3.97;;
803;SDS011;25687;49.976;8.240;2023-06-10T14:14:42;4.70;;;3.88;;
803;SDS011;25687;49.976;8.240;2023-06-10T14:17:08;4.40;;;3.97;;
803;SDS011;25687;49.976;8.240;2023-06-10T14:19:33;4.13;;;3.72;;
803;SDS011;25687;49.976;8.240;2023-06-10T14:21:58;6.72;;;4.88;;
803;SDS011;25687;49.976;8.240;2023-06-10T14:24:23;6.05;;;4.72;;
803;SDS011;25687;49.976;8.240;2023-06-10T14:26:49;5.28;;;4.32;;
803;SDS011;25687;49.976;8.240;2023-06-10T14:29:14;5.07;;;4.53;;
803;SDS011;25687;49.976;8.240;2023-06-10T14:31:39;7.38;;;4.05;;
803;SDS011;25687;49.976;8.240;2023-06-10T14:34:05;4.95;;;4.10;;
803;SDS011;25687;49.976;8.240;2023-06-10T14:36:32;4.28;;;3.97;;
803;SDS011;25687;49.976;8.240;2023-06-10T14:38:58;4.60;;;4.10;;
803;SDS011;25687;49.976;8.240;2023-06-10T14:41:23;4.40;;;4.00;;
803;SDS011;25687;49.976;8.240;2023-06-10T14:43:48;5.75;;;4.03;;
803;SDS011;25687;49.976;8.240;2023-06-10T14:46:14;4.93;;;4.35;;
803;SDS011;25687;49.976;8.240;2023-06-10T14:48:39;5.60;;;4.10;;
803;SDS011;25687;49.976;8.240;2023-06-10T14:51:04;5.75;;;4.40;;
803;SDS011;25687;49.976;8.240;2023-06-10T14:53:29;4.95;;;4.40;;
803;SDS011;25687;49.976;8.240;2023-06-10T14:55:55;4.85;;;4.32;;
803;SDS011;25687;49.976;8.240;2023-06-10T14:58:20;4.93;;;4.50;;
803;SDS011;25687;49.976;8.240;2023-06-10T15:00:46;10.52;;;4.30;;
803;SDS011;25687;49.976;8.240;2023-06-10T15:03:11;5.00;;;4.20;;
803;SDS011;25687;49.976;8.240;2023-06-10T15:05:36;5.25;;;4.10;;
803;SDS011;25687;49.976;8.240;2023-06-10T15:08:02;7.65;;;4.88;;
803;SDS011;25687;49.976;8.240;2023-06-10T15:10:28;5.22;;;4.72;;
803;SDS011;25687;49.976;8.240;2023-06-10T15:12:53;4.82;;;4.20;;
803;SDS011;25687;49.976;8.240;2023-06-10T15:15:23;7.68;;;6.80;;
803;SDS011;25687;49.976;8.240;2023-06-10T15:17:50;6.05;;;4.28;;
803;SDS011;25687;49.976;8.240;2023-06-10T15:20:15;5.63;;;4.47;;
803;SDS011;25687;49.976;8.240;2023-06-10T15:22:41;4.85;;;3.92;;
803;SDS011;25687;49.976;8.240;2023-06-10T15:25:06;5.97;;;4.13;;
803;SDS011;25687;49.976;8.240;2023-06-10T15:27:32;6.07;;;3.70;;